createdAt,value
2022-08-10T00:01:08.442Z,30.50
2022-08-10T00:03:35.416Z,30.40
2022-08-10T00:06:02.338Z,30.50
2022-08-10T00:08:29.295Z,30.50
2022-08-10T00:10:57.818Z,30.60
2022-08-10T00:13:26.397Z,30.70
2022-08-10T00:15:55.339Z,30.80
2022-08-10T00:18:31.434Z,30.80
2022-08-10T00:21:06.695Z,31.20
2022-08-10T00:23:34.794Z,30.90
2022-08-10T00:26:02.406Z,31.00
2022-08-10T00:28:30.000Z,31.10
2022-08-10T00:30:57.138Z,31.20
2022-08-10T00:33:24.433Z,30.70
2022-08-10T00:35:52.074Z,31.00
2022-08-10T00:38:19.024Z,31.20
2022-08-10T00:40:46.212Z,31.20
2022-08-10T00:43:13.323Z,31.30
2022-08-10T00:45:40.413Z,31.40
2022-08-10T00:48:07.402Z,31.30
2022-08-10T00:50:34.703Z,31.40
2022-08-10T00:53:02.167Z,31.40
2022-08-10T00:55:29.034Z,31.60
2022-08-10T00:57:57.778Z,31.20
2022-08-10T01:00:25.084Z,31.40
2022-08-10T01:02:52.344Z,31.40
2022-08-10T01:05:20.841Z,31.50
2022-08-10T01:08:20.624Z,31.60
2022-08-10T01:11:42.405Z,32.00
2022-08-10T01:14:33.677Z,32.00
2022-08-10T01:17:24.525Z,32.00
2022-08-10T01:20:30.285Z,32.00
2022-08-10T01:23:49.699Z,32.00
2022-08-10T01:26:50.145Z,32.20
2022-08-10T01:29:52.652Z,32.20
2022-08-10T01:32:32.608Z,32.30
2022-08-10T01:35:15.163Z,32.20
2022-08-10T01:37:56.785Z,32.60
2022-08-10T01:40:28.515Z,32.50
2022-08-10T01:43:08.333Z,32.30
2022-08-10T01:45:45.187Z,32.40
2022-08-10T01:48:28.614Z,32.30
2022-08-10T01:51:41.563Z,32.60
2022-08-10T01:54:13.316Z,32.50
2022-08-10T01:56:48.522Z,32.50
2022-08-10T01:59:19.452Z,32.60
2022-08-10T02:01:51.173Z,32.60
2022-08-10T02:04:21.480Z,32.70
2022-08-10T02:06:53.578Z,32.80
2022-08-10T02:09:26.154Z,33.00
2022-08-10T02:12:08.132Z,32.90
2022-08-10T02:15:05.966Z,32.90
2022-08-10T02:17:59.747Z,33.40
2022-08-10T02:20:36.454Z,33.20
2022-08-10T02:23:09.372Z,33.30
2022-08-10T02:25:41.368Z,33.40
2022-08-10T02:28:27.151Z,33.40
2022-08-10T02:31:11.681Z,33.50
2022-08-10T02:33:56.575Z,33.50
2022-08-10T02:36:29.432Z,33.60
2022-08-10T02:39:01.027Z,33.80
2022-08-10T02:45:01.234Z,34.00
2022-08-10T02:45:18.408Z,33.90
2022-08-10T02:47:51.189Z,35.10
2022-08-10T02:50:35.541Z,34.10
2022-08-10T02:53:55.290Z,34.80
2022-08-10T02:56:30.937Z,34.30
2022-08-10T02:59:08.855Z,34.70
2022-08-10T03:01:43.703Z,34.60
2022-08-10T03:04:20.805Z,34.40
2022-08-10T03:07:13.137Z,34.90
2022-08-10T03:09:42.458Z,34.60
2022-08-10T03:12:34.891Z,34.50
2022-08-10T03:15:02.766Z,34.70
2022-08-10T03:17:32.249Z,34.70
2022-08-10T03:20:34.806Z,34.80
2022-08-10T03:22:51.335Z,34.90
2022-08-10T03:25:23.849Z,34.80
2022-08-10T03:27:51.666Z,35.00
2022-08-10T03:30:30.034Z,35.00
2022-08-10T03:33:03.779Z,35.10
2022-08-10T03:35:31.320Z,35.20
2022-08-10T03:38:00.385Z,35.40
2022-08-10T03:40:45.373Z,34.80
2022-08-10T03:43:20.299Z,35.20
2022-08-10T03:45:56.009Z,35.70
2022-08-10T03:48:32.057Z,35.50
2022-08-10T03:51:16.560Z,35.50
2022-08-10T03:54:06.230Z,35.70
2022-08-10T03:56:34.177Z,35.50
2022-08-10T03:59:03.955Z,35.70
2022-08-10T04:02:43.272Z,35.90
2022-08-10T04:04:24.228Z,36.10
2022-08-10T04:06:55.605Z,36.20
2022-08-10T04:09:54.637Z,36.30
2022-08-10T04:12:18.383Z,36.50
2022-08-10T04:14:50.563Z,36.30
2022-08-10T04:18:03.178Z,36.20
2022-08-10T04:20:40.634Z,36.40
2022-08-10T04:23:14.069Z,37.10
2022-08-10T04:25:41.707Z,36.80
2022-08-10T04:28:10.655Z,36.50
2022-08-10T04:30:39.214Z,36.80
2022-08-10T04:33:10.330Z,36.80
2022-08-10T04:35:39.126Z,37.60
2022-08-10T04:38:08.351Z,37.40
2022-08-10T04:40:35.394Z,37.50
2022-08-10T04:43:12.213Z,37.50
2022-08-10T04:45:49.964Z,37.50
2022-08-10T04:48:40.210Z,38.30
2022-08-10T04:51:17.182Z,38.00
2022-08-10T04:54:05.070Z,38.00
2022-08-10T04:56:36.110Z,38.10
2022-08-10T04:59:05.176Z,38.10
2022-08-10T05:02:21.876Z,38.30
2022-08-10T05:04:34.974Z,38.40
2022-08-10T05:07:16.761Z,38.50
2022-08-10T05:10:01.132Z,39.10
2022-08-10T05:12:39.757Z,38.60
2022-08-10T05:15:12.414Z,38.50
2022-08-10T05:17:43.512Z,38.70
2022-08-10T05:20:29.493Z,38.80
2022-08-10T05:22:56.468Z,38.70
2022-08-10T05:25:23.306Z,38.90
2022-08-10T05:27:52.219Z,39.00
2022-08-10T05:30:22.633Z,39.10
2022-08-10T05:32:59.202Z,39.30
2022-08-10T05:35:56.582Z,39.30
2022-08-10T05:38:18.502Z,38.80
2022-08-10T05:40:47.846Z,39.10
2022-08-10T05:43:22.350Z,39.10
2022-08-10T05:46:16.706Z,39.90
2022-08-10T05:48:59.587Z,39.50
2022-08-10T05:51:29.919Z,39.60
2022-08-10T05:54:01.429Z,39.70
2022-08-10T05:56:53.650Z,39.70
2022-08-10T06:00:34.877Z,39.80
2022-08-10T06:02:32.806Z,39.70
2022-08-10T06:04:58.566Z,40.40
2022-08-10T06:07:28.401Z,39.80
2022-08-10T06:10:00.474Z,40.00
2022-08-10T06:12:31.361Z,40.00
2022-08-10T06:15:10.111Z,40.00
2022-08-10T06:17:40.015Z,40.00
2022-08-10T06:20:08.979Z,40.00
2022-08-10T06:22:36.251Z,40.40
2022-08-10T06:25:32.368Z,40.40
2022-08-10T06:27:55.475Z,40.50
2022-08-10T06:30:25.860Z,41.20
2022-08-10T06:32:56.856Z,40.80
2022-08-10T06:35:29.910Z,41.00
2022-08-10T06:38:02.738Z,41.10
2022-08-10T06:40:39.312Z,41.00
2022-08-10T06:43:13.400Z,41.10
2022-08-10T06:46:06.877Z,41.10
2022-08-10T06:48:45.220Z,41.60
2022-08-10T06:51:24.203Z,41.50
2022-08-10T06:53:56.303Z,41.70
2022-08-10T06:56:36.595Z,41.50
2022-08-10T06:59:22.189Z,41.40
2022-08-10T07:02:08.161Z,41.70
2022-08-10T07:05:02.133Z,42.20
2022-08-10T07:07:34.816Z,41.70
2022-08-10T07:10:01.819Z,41.70
2022-08-10T07:12:31.240Z,41.80
2022-08-10T07:15:00.366Z,41.80
2022-08-10T07:17:30.667Z,41.80
2022-08-10T07:20:01.121Z,41.50
2022-08-10T07:23:08.737Z,41.70
2022-08-10T07:25:27.073Z,41.60
2022-08-10T07:27:59.785Z,41.40
2022-08-10T07:30:36.291Z,41.40
2022-08-10T07:33:06.273Z,41.30
2022-08-10T07:35:42.405Z,41.30
2022-08-10T07:38:21.904Z,41.20
2022-08-10T07:40:51.630Z,41.10
2022-08-10T07:43:23.787Z,41.00
2022-08-10T07:45:51.803Z,41.20
2022-08-10T07:48:32.639Z,41.00
2022-08-10T07:51:02.249Z,40.90
2022-08-10T07:53:39.911Z,40.80
2022-08-10T07:56:26.014Z,41.00
2022-08-10T07:59:14.785Z,40.80
2022-08-10T08:01:50.524Z,40.80
2022-08-10T08:04:20.815Z,40.60
2022-08-10T08:06:50.029Z,40.70
2022-08-10T08:09:20.447Z,40.50
2022-08-10T08:11:49.827Z,40.30
2022-08-10T08:14:18.419Z,40.30
2022-08-10T08:16:50.440Z,40.00
2022-08-10T08:19:28.523Z,40.00
2022-08-10T08:24:15.034Z,39.70
2022-08-10T08:24:58.212Z,39.80
2022-08-10T08:27:28.347Z,39.60
2022-08-10T08:29:56.471Z,39.50
2022-08-10T08:32:29.906Z,39.70
2022-08-10T08:35:05.083Z,39.30
2022-08-10T08:38:29.506Z,39.00
2022-08-10T08:40:33.595Z,39.20
2022-08-10T08:43:12.449Z,39.20
2022-08-10T08:46:01.821Z,39.00
2022-08-10T08:48:59.083Z,39.00
2022-08-10T08:52:09.893Z,38.60
2022-08-10T08:56:04.546Z,38.40
2022-08-10T08:58:50.485Z,37.60
2022-08-10T09:01:49.200Z,37.60
2022-08-10T09:04:57.848Z,37.00
2022-08-10T09:08:01.511Z,37.10
2022-08-10T09:11:09.118Z,37.00
2022-08-10T09:13:54.344Z,36.30
2022-08-10T09:16:41.038Z,35.60
2022-08-10T09:19:43.614Z,35.80
2022-08-10T09:22:38.029Z,33.70
2022-08-10T09:25:20.293Z,35.00
2022-08-10T09:28:02.755Z,34.60
2022-08-10T09:31:03.589Z,34.00
2022-08-10T09:36:27.000Z,33.30
2022-08-10T09:36:53.676Z,32.70
2022-08-10T09:40:12.494Z,32.80
2022-08-10T09:42:49.766Z,32.70
2022-08-10T09:45:53.015Z,32.10
2022-08-10T09:48:35.208Z,31.90
2022-08-10T09:51:47.365Z,30.90
2022-08-10T09:54:44.635Z,31.00
2022-08-10T09:57:54.734Z,31.10
2022-08-10T10:00:25.848Z,30.90
2022-08-10T10:03:10.911Z,31.20
2022-08-10T10:05:59.300Z,30.00
2022-08-10T10:09:10.244Z,30.00
2022-08-10T10:12:10.005Z,30.50
2022-08-10T10:15:42.958Z,30.70
2022-08-10T10:18:49.444Z,29.70
2022-08-10T10:21:54.071Z,29.80
2022-08-10T10:25:19.851Z,28.90
2022-08-10T10:28:03.497Z,28.60
2022-08-10T10:30:50.786Z,29.10
2022-08-10T10:33:59.953Z,29.00
2022-08-10T10:36:29.522Z,28.50
2022-08-10T10:39:00.130Z,28.90
2022-08-10T10:41:55.937Z,28.80
2022-08-10T10:45:08.300Z,28.40
2022-08-10T10:48:08.779Z,28.40
2022-08-10T10:51:15.250Z,28.20
2022-08-10T10:54:00.217Z,28.20
2022-08-10T10:56:42.511Z,27.40
2022-08-10T10:59:56.437Z,27.80
2022-08-10T11:02:47.784Z,28.20
2022-08-10T11:05:37.936Z,27.70
2022-08-10T11:08:28.801Z,27.30
2022-08-10T11:11:59.800Z,27.40
2022-08-10T11:14:29.752Z,27.80
2022-08-10T11:17:22.391Z,27.80
2022-08-10T11:20:23.363Z,27.50
2022-08-10T11:23:22.191Z,26.70
2022-08-10T11:26:13.606Z,27.00
2022-08-10T11:29:07.506Z,27.00
2022-08-10T11:31:48.315Z,27.20
2022-08-10T11:35:11.729Z,27.20
2022-08-10T11:38:30.022Z,27.30
2022-08-10T11:42:11.933Z,26.90
2022-08-10T11:44:50.991Z,26.80
2022-08-10T11:47:25.395Z,26.60
2022-08-10T11:50:11.207Z,26.60
2022-08-10T11:53:35.227Z,26.40
2022-08-10T11:56:11.829Z,26.90
2022-08-10T11:59:01.927Z,26.70
2022-08-10T12:01:47.014Z,26.40
2022-08-10T12:04:16.895Z,26.40
2022-08-10T12:06:55.654Z,26.20
2022-08-10T12:10:09.415Z,26.10
2022-08-10T12:12:13.628Z,26.10
2022-08-10T12:15:08.868Z,26.20
2022-08-10T12:17:52.704Z,26.00
2022-08-10T12:20:32.063Z,25.20
2022-08-10T12:23:39.179Z,25.20
2022-08-10T12:26:16.778Z,25.40
2022-08-10T12:29:01.198Z,25.20
2022-08-10T12:31:43.938Z,25.30
2022-08-10T12:35:00.171Z,25.10
2022-08-10T12:38:21.509Z,25.50
2022-08-10T12:40:57.552Z,25.50
2022-08-10T12:44:07.454Z,25.20
2022-08-10T12:46:33.008Z,25.00
2022-08-10T12:49:34.167Z,24.30
2022-08-10T12:52:27.528Z,24.50
2022-08-10T12:54:59.315Z,24.70
2022-08-10T12:57:28.355Z,24.40
2022-08-10T13:00:01.714Z,24.60
2022-08-10T13:02:34.702Z,23.80
2022-08-10T13:05:08.684Z,24.10
2022-08-10T13:08:03.763Z,24.30
2022-08-10T13:10:26.998Z,24.30
2022-08-10T13:12:58.215Z,24.10
2022-08-10T13:15:50.114Z,24.00
2022-08-10T13:18:29.099Z,24.00
2022-08-10T13:21:20.156Z,23.20
2022-08-10T13:24:04.157Z,23.50
2022-08-10T13:27:22.758Z,23.20
2022-08-10T13:29:36.667Z,23.20
2022-08-10T13:32:10.352Z,23.90
2022-08-10T13:34:46.365Z,23.60
2022-08-10T13:37:23.897Z,23.40
2022-08-10T13:40:00.180Z,22.90
2022-08-10T13:42:33.868Z,23.20
2022-08-10T13:45:12.118Z,23.20
2022-08-10T13:47:48.512Z,22.80
2022-08-10T13:50:35.181Z,23.00
2022-08-10T13:53:15.214Z,23.10
2022-08-10T13:55:56.879Z,23.00
2022-08-10T13:58:30.679Z,22.60
2022-08-10T14:01:02.929Z,23.10
2022-08-10T14:03:38.006Z,23.00
2022-08-10T14:06:10.278Z,22.60
2022-08-10T14:08:39.437Z,23.10
2022-08-10T14:11:14.338Z,22.70
2022-08-10T14:13:47.260Z,22.50
2022-08-10T14:16:17.103Z,22.80
2022-08-10T14:18:45.998Z,22.40
2022-08-10T14:21:14.765Z,22.50
2022-08-10T14:23:52.307Z,22.20
2022-08-10T14:26:26.236Z,22.50
2022-08-10T14:29:19.672Z,22.40
2022-08-10T14:32:00.763Z,22.30
2022-08-10T14:34:59.389Z,22.40
2022-08-10T14:37:37.595Z,22.50
2022-08-10T14:40:33.719Z,22.30
2022-08-10T14:43:06.535Z,22.30
2022-08-10T14:45:36.998Z,22.20
2022-08-10T14:48:15.749Z,22.40
2022-08-10T14:50:55.014Z,21.80
2022-08-10T14:53:31.640Z,21.90
2022-08-10T14:56:08.547Z,22.10
2022-08-10T14:59:06.225Z,21.80
2022-08-10T15:02:01.124Z,22.10
2022-08-10T15:04:24.830Z,22.00
2022-08-10T15:07:29.589Z,21.80
2022-08-10T15:10:01.482Z,21.60
2022-08-10T15:12:39.984Z,21.70
2022-08-10T15:15:16.422Z,21.60
2022-08-10T15:17:53.440Z,21.60
2022-08-10T15:20:28.056Z,21.60
2022-08-10T15:23:03.842Z,21.70
2022-08-10T15:25:36.338Z,21.70
2022-08-10T15:28:11.165Z,21.60
2022-08-10T15:30:48.671Z,21.40
2022-08-10T15:34:03.820Z,21.50
2022-08-10T15:37:36.289Z,21.30
2022-08-10T15:40:25.134Z,21.70
2022-08-10T15:42:35.402Z,21.40
2022-08-10T15:45:03.681Z,21.30
2022-08-10T15:47:45.460Z,21.50
2022-08-10T15:50:34.284Z,21.50
2022-08-10T15:53:46.917Z,21.40
2022-08-10T15:56:48.530Z,21.30
2022-08-10T15:59:40.102Z,21.40
2022-08-10T16:02:26.046Z,21.40
2022-08-10T16:05:11.758Z,21.20
2022-08-10T16:07:49.374Z,21.20
2022-08-10T16:10:28.703Z,21.20
2022-08-10T16:13:51.037Z,20.90
2022-08-10T16:16:01.754Z,21.10
2022-08-10T16:18:34.616Z,21.10
2022-08-10T16:21:16.709Z,21.20
2022-08-10T16:24:15.301Z,21.30
2022-08-10T16:26:50.325Z,21.30
2022-08-10T16:29:25.845Z,21.20
2022-08-10T16:32:03.384Z,21.50
2022-08-10T16:34:36.829Z,21.50
2022-08-10T16:37:14.415Z,21.40
2022-08-10T16:39:57.888Z,21.70
2022-08-10T16:42:34.433Z,21.40
2022-08-10T16:45:08.885Z,21.40
2022-08-10T16:47:46.615Z,21.50
2022-08-10T16:50:25.790Z,21.60
2022-08-10T16:52:57.225Z,21.60
2022-08-10T16:55:49.221Z,21.70
2022-08-10T16:58:15.039Z,21.70
2022-08-10T17:00:45.586Z,21.60
2022-08-10T17:03:22.607Z,21.60
2022-08-10T17:06:11.046Z,21.50
2022-08-10T17:08:49.004Z,21.60
2022-08-10T17:11:20.483Z,21.80
2022-08-10T17:13:48.995Z,21.70
2022-08-10T17:16:17.553Z,21.90
2022-08-10T17:18:48.215Z,21.80
2022-08-10T17:21:22.467Z,21.90
2022-08-10T17:24:00.440Z,22.00
2022-08-10T17:26:37.192Z,21.90
2022-08-10T17:29:58.550Z,22.00
2022-08-10T17:32:43.870Z,22.10
2022-08-10T17:35:22.509Z,22.10
2022-08-10T17:38:24.786Z,22.20
2022-08-10T17:41:13.597Z,22.20
2022-08-10T17:43:46.484Z,22.30
2022-08-10T17:46:34.506Z,22.40
2022-08-10T17:49:08.780Z,22.50
2022-08-10T17:51:39.355Z,22.50
2022-08-10T17:54:21.785Z,22.40
2022-08-10T17:56:52.325Z,22.50
2022-08-10T17:59:26.137Z,22.50
2022-08-10T18:02:08.283Z,22.60
2022-08-10T18:04:41.373Z,22.80
2022-08-10T18:07:11.249Z,22.70
2022-08-10T18:09:52.368Z,22.70
2022-08-10T18:12:32.501Z,22.90
2022-08-10T18:15:13.704Z,22.80
2022-08-10T18:17:48.132Z,22.90
2022-08-10T18:20:20.083Z,22.90
2022-08-10T18:22:50.471Z,23.00
2022-08-10T18:25:26.824Z,23.00
2022-08-10T18:28:04.352Z,23.10
2022-08-10T18:30:45.145Z,23.10
2022-08-10T18:33:14.609Z,23.20
2022-08-10T18:35:45.043Z,23.20
2022-08-10T18:38:16.098Z,23.20
2022-08-10T18:40:52.737Z,23.20
2022-08-10T18:44:11.231Z,23.30
2022-08-10T18:46:30.442Z,23.40
2022-08-10T18:49:13.280Z,23.40
2022-08-10T18:51:46.747Z,23.50
2022-08-10T18:54:43.828Z,23.40
2022-08-10T18:57:57.351Z,23.60
2022-08-10T19:00:38.295Z,23.60
2022-08-10T19:03:54.167Z,23.60
2022-08-10T19:06:55.734Z,23.60
2022-08-10T19:09:46.398Z,23.80
2022-08-10T19:12:33.591Z,23.60
2022-08-10T19:15:07.141Z,23.80
2022-08-10T19:18:03.936Z,23.80
2022-08-10T19:21:02.466Z,23.90
2022-08-10T19:23:29.307Z,24.00
2022-08-10T19:26:44.388Z,23.90
2022-08-10T19:30:08.502Z,23.80
2022-08-10T19:32:42.712Z,24.10
2022-08-10T19:36:04.301Z,24.00
2022-08-10T19:39:00.352Z,24.20
2022-08-10T19:41:45.436Z,24.20
2022-08-10T19:44:57.470Z,24.10
2022-08-10T19:47:35.828Z,24.40
2022-08-10T19:50:19.575Z,24.20
2022-08-10T19:53:09.240Z,24.40
2022-08-10T19:56:33.456Z,24.30
2022-08-10T20:00:15.610Z,24.30
2022-08-10T20:02:21.795Z,24.60
2022-08-10T20:05:10.391Z,24.40
2022-08-10T20:08:06.655Z,24.40
2022-08-10T20:11:11.145Z,24.50
2022-08-10T20:14:22.055Z,24.50
2022-08-10T20:16:56.248Z,24.60
2022-08-10T20:19:53.258Z,24.50
2022-08-10T20:22:35.874Z,24.60
2022-08-10T20:25:29.011Z,24.60
2022-08-10T20:28:19.422Z,24.70
2022-08-10T20:30:55.459Z,24.70
2022-08-10T20:33:42.254Z,24.70
2022-08-10T20:36:20.768Z,24.80
2022-08-10T20:39:26.131Z,24.70
2022-08-10T20:42:16.488Z,24.90
2022-08-10T20:45:02.200Z,24.80
2022-08-10T20:47:54.138Z,24.90
2022-08-10T20:50:24.360Z,24.80
2022-08-10T20:52:52.939Z,24.80
2022-08-10T20:55:23.788Z,24.90
2022-08-10T20:58:26.877Z,24.90
2022-08-10T21:01:18.212Z,24.90
2022-08-10T21:04:28.119Z,25.10
2022-08-10T21:08:00.382Z,25.10
2022-08-10T21:10:41.804Z,24.70
2022-08-10T21:13:23.470Z,25.10
2022-08-10T21:16:06.893Z,25.10
2022-08-10T21:19:30.925Z,25.40
2022-08-10T21:22:16.918Z,25.50
2022-08-10T21:25:10.295Z,25.40
2022-08-10T21:28:11.279Z,25.70
2022-08-10T21:31:14.183Z,25.80
2022-08-10T21:34:32.340Z,25.70
2022-08-10T21:37:16.863Z,26.00
2022-08-10T21:40:34.852Z,25.90
2022-08-10T21:43:59.215Z,26.00
2022-08-10T21:47:17.901Z,26.10
2022-08-10T21:53:47.612Z,26.10
2022-08-10T21:56:45.684Z,25.80
2022-08-10T21:59:58.788Z,25.90
2022-08-10T22:02:52.017Z,26.30
2022-08-10T22:05:55.091Z,26.50
2022-08-10T22:08:55.098Z,26.80
2022-08-10T22:11:46.448Z,26.40
2022-08-10T22:14:42.269Z,26.60
2022-08-10T22:18:00.700Z,26.70
2022-08-10T22:20:49.530Z,27.00
2022-08-10T22:23:40.714Z,26.80
2022-08-10T22:27:00.719Z,27.10
2022-08-10T22:30:01.362Z,27.10
2022-08-10T22:31:27.693Z,26.10
2022-08-10T22:33:32.257Z,26.50
2022-08-10T22:37:01.710Z,27.30
2022-08-10T22:40:21.966Z,27.40
2022-08-10T22:43:12.982Z,27.50
2022-08-10T22:46:13.965Z,27.40
2022-08-10T22:49:02.417Z,27.80
2022-08-10T22:51:57.738Z,27.70
2022-08-10T22:54:57.313Z,27.90
2022-08-10T22:57:43.696Z,27.80
2022-08-10T23:00:17.959Z,27.80
2022-08-10T23:03:10.373Z,28.20
2022-08-10T23:05:54.381Z,28.50
2022-08-10T23:08:49.405Z,28.20
2022-08-10T23:11:35.443Z,28.60
2022-08-10T23:14:11.040Z,28.70
2022-08-10T23:17:06.074Z,28.60
2022-08-10T23:19:44.184Z,28.80
2022-08-10T23:22:16.403Z,28.50
2022-08-10T23:24:55.031Z,28.10
2022-08-10T23:27:39.288Z,28.70
2022-08-10T23:30:18.060Z,28.80
2022-08-10T23:32:51.257Z,28.50
2022-08-10T23:36:29.969Z,28.80
2022-08-10T23:38:14.708Z,28.90
2022-08-10T23:40:49.899Z,29.00
2022-08-10T23:43:32.088Z,29.40
2022-08-10T23:46:11.784Z,29.20
2022-08-10T23:48:45.045Z,29.20
2022-08-10T23:51:17.206Z,29.20
2022-08-10T23:53:49.031Z,29.30
2022-08-10T23:56:22.089Z,29.30
2022-08-10T23:58:58.972Z,29.40
